Saturday, August 18, 2018, 2:52 AM GMT
Back to Local

CYBC, Baie Comeau, Que.

Location: , , Canada Lat: 49.133
Local Time: 2:52 AM GMT ( 2:52 GMT) Lon: -68.2
Time Zone: GMT Elev: 68 ft

Show me the last for .
Show Coded

Time T Td Feel RH Dir Speed Gust Alt SLP Vis Weather Sky Remarks
2018-08-18 02:00 57 55 - 93 230° 6 - 29.92 29.93 9 -RA OVC100 None
2018-08-18 01:00 57 55 - 93 - Calm - 29.93 29.93 9 -RA OVC110 None
2018-08-18 00:42 59 54 - 82 - Calm - 29.93 29.93 9 -RA FEW055 OVC100 None
2018-08-18 00:00 59 54 - 82 - Calm - 29.92 29.93 9 OVC130 None
2018-08-17 23:00 59 52 - 77 - Calm - 29.92 29.92 9 BKN150 BKN180 None
2018-08-17 22:00 61 52 - 72 230° 3 - 29.92 29.92 9 CLR None
2018-08-17 21:00 66 48 - 52 230° 8 - 29.93 29.93 9 CLR None
2018-08-17 20:00 68 50 - 52 220° 8 - 29.94 29.95 9 CLR None
2018-08-17 19:00 68 50 - 52 240° 10 - 29.96 29.97 9 CLR None
2018-08-17 18:00 68 50 - 52 230° 14 21 29.97 29.98 9 CLR None
2018-08-17 17:00 68 52 - 56 230° 14 - 29.99 29.99 9 CLR None
2018-08-17 16:00 64 52 - 63 230° 13 20 30.01 30.01 9 CLR None
2018-08-17 15:00 63 52 - 67 230° 14 - 30.03 30.03 9 CLR None
2018-08-17 14:00 61 52 - 72 220° 10 - 30.05 30.05 9 CLR None
2018-08-17 13:00 59 52 - 77 230° 8 - 30.06 30.06 9 CLR None
2018-08-17 12:00 54 52 - 93 250° 5 - 30.06 30.07 9 SCT004 None
2018-08-17 11:58 54 52 - 93 270° 5 - 30.06 30.07 9 SCT004 None
2018-08-17 11:33 54 52 - 93 250° 7 - 30.06 30.07 9 BKN004 None
2018-08-17 11:00 50 48 49 93 240° 3 - 30.06 30.07 9 CLR None
2018-08-17 10:00 43 43 - 100 280° 2 - 30.06 30.07 9 CLR None
2018-08-17 09:44 43 43 41 100 270° 3 - 30.06 30.07 9 CLR None
2018-08-17 09:34 43 43 41 100 270° 3 - 30.06 30.06 2 BR CLR None
2018-08-17 09:03 45 45 - 100 240° 2 - 30.06 30.06 8 SCT002 None
2018-08-17 09:02 46 45 - 93 240° 2 - 30.06 30.06 4 BR SCT002 None
2018-08-17 09:01 46 45 - 93 240° 2 - 30.06 30.06 2 BR SCT002 None
2018-08-17 09:00 46 45 45 93 250° 3 - 30.06 30.06 1 BR SCT002 None
2018-08-17 08:54 45 45 43 100 240° 3 - 30.06 30.06 0 FG SCT002 None
2018-08-17 08:48 45 43 42 93 230° 5 - 30.06 30.06 1 BR BKN002 None
2018-08-17 08:46 45 43 43 93 220° 3 - 30.06 30.06 1 BR SCT002 None
2018-08-17 08:44 43 43 41 100 220° 3 - 30.06 30.06 2 BR SCT002 None
2018-08-17 08:43 43 43 40 100 220° 5 - 30.06 30.06 4 BR SCT002 None
2018-08-17 08:38 43 41 39 93 220° 6 - 30.06 30.06 9 CLR None
2018-08-17 08:37 43 41 39 93 220° 6 - 30.06 30.07 3 BR FEW002 None
2018-08-17 08:28 43 43 40 100 220° 5 - 30.07 30.07 1 BR FEW002 None
2018-08-17 08:27 43 43 40 100 230° 5 - 30.06 30.07 2 BR CLR None
2018-08-17 08:26 45 43 43 93 240° 3 - 30.06 30.07 4 BR CLR None
2018-08-17 08:05 45 43 - 93 270° 2 - 30.06 30.07 6 BR CLR None
2018-08-17 08:00 45 43 - 93 Variable 2 - 30.06 30.07 5 BR CLR None
2018-08-17 07:57 45 43 - 93 - Calm - 30.06 30.06 5 BR CLR None
2018-08-17 07:41 46 45 44 93 260° 5 - 30.06 30.06 9 CLR None
2018-08-17 07:31 45 43 42 93 250° 5 - 30.06 30.06 3 BR CLR None
2018-08-17 07:00 48 46 46 93 310° 6 - 30.06 30.07 9 CLR None
2018-08-17 06:00 46 45 44 93 280° 5 - 30.06 30.06 9 CLR None
2018-08-17 05:00 46 46 44 100 270° 5 - 30.05 30.06 9 CLR None
2018-08-17 04:00 50 48 48 93 280° 5 - 30.05 30.06 9 CLR None
2018-08-17 03:00 50 46 47 87 270° 7 - 30.05 30.06 9 CLR None

Support USWX by starting your Amazon purchase here.